createdAt,value
2022-08-11T12:22:49.368Z,102223.25
2022-08-11T12:27:55.209Z,102208.75
2022-08-11T12:32:58.106Z,102203.13
2022-08-11T12:38:10.646Z,102206.63
2022-08-11T12:43:24.216Z,102195.72
2022-08-11T12:49:00.355Z,102193.34
2022-08-11T12:54:48.580Z,102186.81
2022-08-11T12:59:52.230Z,102179.03
2022-08-11T13:04:54.745Z,102180.28
2022-08-11T13:09:57.673Z,102179.78
2022-08-11T13:15:02.239Z,102179.97
2022-08-11T13:20:06.114Z,102168.47
2022-08-11T13:25:09.523Z,102167.50
2022-08-11T13:30:18.541Z,102161.78
2022-08-11T13:35:23.168Z,102158.63
2022-08-11T13:40:52.638Z,102153.72
2022-08-11T13:45:49.814Z,102160.16
2022-08-11T13:50:52.365Z,102154.50
2022-08-11T13:55:55.394Z,102151.13
2022-08-11T14:00:58.792Z,102140.59
2022-08-11T14:06:03.496Z,102141.44
2022-08-11T14:11:07.744Z,102137.84
2022-08-11T14:16:33.334Z,102124.75
2022-08-11T14:21:38.119Z,102130.78
2022-08-11T14:26:41.652Z,102119.59
2022-08-11T14:31:45.873Z,102114.44
2022-08-11T14:36:52.043Z,102125.03
2022-08-11T14:42:10.244Z,102121.56
2022-08-11T14:47:23.932Z,102108.22
2022-08-11T14:52:29.446Z,102105.69
2022-08-11T14:57:55.152Z,102107.56
2022-08-11T15:02:59.490Z,102091.00
2022-08-11T15:08:02.425Z,102101.22
2022-08-11T15:13:06.016Z,102089.09
2022-08-11T15:18:12.511Z,102089.06
2022-08-11T15:23:15.441Z,102086.03
2022-08-11T15:28:20.064Z,102080.94
2022-08-11T15:33:26.788Z,102071.78
2022-08-11T15:38:30.458Z,102066.81
2022-08-11T15:43:49.061Z,102054.47
2022-08-11T15:49:21.721Z,102057.88
2022-08-11T15:54:28.885Z,102053.91
2022-08-11T15:59:42.799Z,102051.72
2022-08-11T16:04:47.799Z,102055.38
2022-08-11T16:10:00.043Z,102045.22
2022-08-11T16:15:06.782Z,102036.31
2022-08-11T16:20:10.267Z,102034.56
2022-08-11T16:27:03.158Z,102037.88
2022-08-11T16:30:41.286Z,102031.19
2022-08-11T16:35:46.084Z,102029.56
2022-08-11T16:40:52.150Z,102027.75
2022-08-11T16:45:56.485Z,102023.50
2022-08-11T16:50:59.278Z,102024.13
2022-08-11T16:56:05.656Z,102028.53
2022-08-11T17:01:11.599Z,102022.03
2022-08-11T17:06:14.446Z,102022.66
2022-08-11T17:11:19.265Z,102018.25
2022-08-11T17:16:27.686Z,102015.56
2022-08-11T17:21:34.027Z,102024.72
2022-08-11T17:26:45.363Z,102016.28
2022-08-11T17:31:49.433Z,102017.94
2022-08-11T17:36:56.132Z,102018.47
2022-08-11T17:42:00.562Z,102016.34
2022-08-11T17:47:06.152Z,102023.88
2022-08-11T17:52:10.015Z,102025.63
2022-08-11T17:57:20.534Z,102018.94
2022-08-11T18:02:48.217Z,102016.38
2022-08-11T18:07:53.373Z,102020.25
2022-08-11T18:12:57.433Z,102016.81
2022-08-11T18:17:59.864Z,102022.41
2022-08-11T18:23:08.296Z,102023.06
2022-08-11T18:28:12.854Z,102016.84
2022-08-11T18:33:44.908Z,102026.38
2022-08-11T18:38:41.981Z,102032.03
2022-08-11T18:43:48.232Z,102032.69
2022-08-11T18:48:54.953Z,102031.28
2022-08-11T18:54:08.757Z,102036.22
2022-08-11T18:59:13.728Z,102038.06
2022-08-11T19:04:19.300Z,102038.53
2022-08-11T19:09:21.903Z,102053.03
2022-08-11T19:14:25.101Z,102052.41
2022-08-11T19:19:29.332Z,102058.19
2022-08-11T19:24:32.935Z,102059.47
2022-08-11T19:30:04.883Z,102061.06
2022-08-11T19:35:01.352Z,102076.06
2022-08-11T19:40:09.746Z,102082.75
2022-08-11T19:45:16.100Z,102082.44
2022-08-11T19:50:24.199Z,102093.28
2022-08-11T19:55:27.970Z,102094.31
2022-08-11T20:00:31.140Z,102090.81
2022-08-11T20:05:34.301Z,102098.22
2022-08-11T20:10:37.552Z,102083.47
2022-08-11T20:15:41.477Z,102097.34
2022-08-11T20:20:47.013Z,102092.13
2022-08-11T20:25:55.782Z,102100.38
2022-08-11T20:31:07.999Z,102098.28
2022-08-11T20:36:13.381Z,102098.69
2022-08-11T20:41:17.306Z,102099.56
2022-08-11T20:46:21.838Z,102105.22
2022-08-11T20:51:25.190Z,102107.88
2022-08-11T20:56:31.103Z,102117.13
2022-08-11T21:01:38.764Z,102117.88
2022-08-11T21:06:44.956Z,102122.09
2022-08-11T21:11:49.442Z,102124.00
2022-08-11T21:16:54.629Z,102124.78
2022-08-11T21:22:00.569Z,102135.75
2022-08-11T21:27:07.134Z,102126.38
2022-08-11T21:32:20.573Z,102125.06
2022-08-11T21:37:24.582Z,102128.59
2022-08-11T21:42:28.168Z,102119.34
2022-08-11T21:47:43.551Z,102119.06
2022-08-11T21:52:46.832Z,102126.56
2022-08-11T21:57:50.685Z,102125.78
2022-08-11T22:02:53.922Z,102123.72
2022-08-11T22:07:57.079Z,102118.41
2022-08-11T22:12:59.512Z,102126.22
2022-08-11T22:18:02.038Z,102126.22
2022-08-11T22:23:05.029Z,102124.13
2022-08-11T22:28:07.231Z,102119.69
2022-08-11T22:33:09.636Z,102123.56
2022-08-11T22:38:12.969Z,102115.91
2022-08-11T22:43:15.491Z,102111.59
2022-08-11T22:48:20.129Z,102120.88
2022-08-11T22:53:25.579Z,102115.06
2022-08-11T22:58:49.311Z,102110.94
2022-08-11T23:03:52.634Z,102112.00
2022-08-11T23:08:56.916Z,102108.50
2022-08-11T23:14:00.069Z,102106.41
2022-08-11T23:19:04.319Z,102113.59
2022-08-11T23:24:07.593Z,102103.78
2022-08-11T23:29:11.310Z,102107.78
2022-08-11T23:35:04.342Z,102088.81
2022-08-11T23:40:06.579Z,102095.75
2022-08-11T23:45:10.140Z,102090.81
2022-08-11T23:50:13.002Z,102097.09
2022-08-11T23:55:21.061Z,102104.81
